sensor_id;sensor_type;location;lat;lon;timestamp;P1;durP1;ratioP1;P2;durP2;ratioP2
15130;SDS011;7666;50.920;4.628;2023-02-13T00:00:09;23.40;;;16.13;;
15130;SDS011;7666;50.920;4.628;2023-02-13T00:02:57;24.60;;;16.77;;
15130;SDS011;7666;50.920;4.628;2023-02-13T00:05:43;21.07;;;16.23;;
15130;SDS011;7666;50.920;4.628;2023-02-13T00:08:29;20.63;;;15.40;;
15130;SDS011;7666;50.920;4.628;2023-02-13T00:11:15;23.03;;;16.73;;
15130;SDS011;7666;50.920;4.628;2023-02-13T00:14:01;30.17;;;20.57;;
15130;SDS011;7666;50.920;4.628;2023-02-13T00:16:47;34.20;;;22.53;;
15130;SDS011;7666;50.920;4.628;2023-02-13T00:19:33;35.60;;;24.10;;
15130;SDS011;7666;50.920;4.628;2023-02-13T00:22:19;43.70;;;28.57;;
15130;SDS011;7666;50.920;4.628;2023-02-13T00:25:05;40.27;;;24.83;;
15130;SDS011;7666;50.920;4.628;2023-02-13T00:27:52;28.77;;;20.77;;
15130;SDS011;7666;50.920;4.628;2023-02-13T00:30:38;97.40;;;21.30;;
15130;SDS011;7666;50.920;4.628;2023-02-13T00:33:24;53.10;;;23.53;;
15130;SDS011;7666;50.920;4.628;2023-02-13T00:36:11;46.63;;;28.20;;
15130;SDS011;7666;50.920;4.628;2023-02-13T00:38:58;55.73;;;34.67;;
15130;SDS011;7666;50.920;4.628;2023-02-13T00:41:44;81.27;;;35.83;;
15130;SDS011;7666;50.920;4.628;2023-02-13T00:44:30;69.87;;;36.17;;
15130;SDS011;7666;50.920;4.628;2023-02-13T00:47:16;129.57;;;41.00;;
15130;SDS011;7666;50.920;4.628;2023-02-13T00:50:03;56.73;;;35.80;;
15130;SDS011;7666;50.920;4.628;2023-02-13T00:52:49;340.73;;;40.53;;
15130;SDS011;7666;50.920;4.628;2023-02-13T00:55:35;62.53;;;37.50;;
15130;SDS011;7666;50.920;4.628;2023-02-13T00:58:21;66.00;;;37.17;;
15130;SDS011;7666;50.920;4.628;2023-02-13T01:01:08;53.90;;;35.53;;
15130;SDS011;7666;50.920;4.628;2023-02-13T01:03:54;58.93;;;35.60;;
15130;SDS011;7666;50.920;4.628;2023-02-13T01:06:40;52.00;;;34.07;;
15130;SDS011;7666;50.920;4.628;2023-02-13T01:09:26;50.30;;;32.17;;
15130;SDS011;7666;50.920;4.628;2023-02-13T01:12:12;47.60;;;31.37;;
15130;SDS011;7666;50.920;4.628;2023-02-13T01:14:58;45.30;;;28.37;;
15130;SDS011;7666;50.920;4.628;2023-02-13T01:17:44;38.53;;;26.13;;
15130;SDS011;7666;50.920;4.628;2023-02-13T01:20:30;35.77;;;24.70;;
15130;SDS011;7666;50.920;4.628;2023-02-13T01:23:16;34.00;;;23.03;;
15130;SDS011;7666;50.920;4.628;2023-02-13T01:26:03;31.57;;;23.23;;
15130;SDS011;7666;50.920;4.628;2023-02-13T01:28:53;38.97;;;25.77;;
15130;SDS011;7666;50.920;4.628;2023-02-13T01:31:39;56.33;;;35.20;;
15130;SDS011;7666;50.920;4.628;2023-02-13T01:34:25;57.40;;;35.70;;
15130;SDS011;7666;50.920;4.628;2023-02-13T01:37:11;56.53;;;35.10;;
15130;SDS011;7666;50.920;4.628;2023-02-13T01:39:58;48.47;;;31.17;;
15130;SDS011;7666;50.920;4.628;2023-02-13T01:42:44;54.00;;;33.73;;
15130;SDS011;7666;50.920;4.628;2023-02-13T01:45:30;52.93;;;32.03;;
15130;SDS011;7666;50.920;4.628;2023-02-13T01:48:23;66.37;;;36.17;;
15130;SDS011;7666;50.920;4.628;2023-02-13T01:51:12;84.17;;;41.20;;
15130;SDS011;7666;50.920;4.628;2023-02-13T01:54:06;81.33;;;43.97;;
15130;SDS011;7666;50.920;4.628;2023-02-13T01:56:57;109.87;;;42.20;;
15130;SDS011;7666;50.920;4.628;2023-02-13T01:59:54;67.33;;;40.77;;
15130;SDS011;7666;50.920;4.628;2023-02-13T02:02:49;65.70;;;39.07;;
15130;SDS011;7666;50.920;4.628;2023-02-13T02:05:39;59.07;;;33.20;;
15130;SDS011;7666;50.920;4.628;2023-02-13T02:08:26;152.17;;;30.67;;
15130;SDS011;7666;50.920;4.628;2023-02-13T02:11:15;48.67;;;30.23;;
15130;SDS011;7666;50.920;4.628;2023-02-13T02:14:07;56.77;;;35.87;;
15130;SDS011;7666;50.920;4.628;2023-02-13T02:16:53;38.07;;;29.03;;
15130;SDS011;7666;50.920;4.628;2023-02-13T02:19:55;43.17;;;23.50;;
15130;SDS011;7666;50.920;4.628;2023-02-13T02:29:23;49.93;;;30.83;;
15130;SDS011;7666;50.920;4.628;2023-02-13T02:39:09;46.07;;;31.47;;
15130;SDS011;7666;50.920;4.628;2023-02-13T02:42:21;42.87;;;30.50;;
15130;SDS011;7666;50.920;4.628;2023-02-13T02:45:34;47.33;;;29.60;;
15130;SDS011;7666;50.920;4.628;2023-02-13T02:51:47;52.10;;;33.13;;
15130;SDS011;7666;50.920;4.628;2023-02-13T02:54:41;40.13;;;30.33;;
15130;SDS011;7666;50.920;4.628;2023-02-13T02:58:01;60.03;;;31.00;;
15130;SDS011;7666;50.920;4.628;2023-02-13T03:01:15;60.23;;;29.47;;
15130;SDS011;7666;50.920;4.628;2023-02-13T03:04:26;30.13;;;23.30;;
15130;SDS011;7666;50.920;4.628;2023-02-13T03:07:35;123.63;;;23.57;;
15130;SDS011;7666;50.920;4.628;2023-02-13T03:10:24;33.73;;;22.33;;
15130;SDS011;7666;50.920;4.628;2023-02-13T03:16:26;34.00;;;22.33;;
15130;SDS011;7666;50.920;4.628;2023-02-13T03:19:35;42.33;;;24.43;;
15130;SDS011;7666;50.920;4.628;2023-02-13T03:22:57;30.20;;;24.43;;
15130;SDS011;7666;50.920;4.628;2023-02-13T03:29:08;64.73;;;25.87;;
15130;SDS011;7666;50.920;4.628;2023-02-13T03:36:16;31.83;;;22.87;;
15130;SDS011;7666;50.920;4.628;2023-02-13T03:39:09;128.53;;;25.10;;
15130;SDS011;7666;50.920;4.628;2023-02-13T03:42:12;52.00;;;24.33;;
15130;SDS011;7666;50.920;4.628;2023-02-13T03:48:32;32.50;;;24.10;;
15130;SDS011;7666;50.920;4.628;2023-02-13T03:51:41;58.23;;;25.67;;
15130;SDS011;7666;50.920;4.628;2023-02-13T03:57:59;28.30;;;24.37;;
15130;SDS011;7666;50.920;4.628;2023-02-13T04:01:08;30.40;;;25.67;;
15130;SDS011;7666;50.920;4.628;2023-02-13T04:04:09;30.87;;;25.50;;
15130;SDS011;7666;50.920;4.628;2023-02-13T04:07:02;31.10;;;25.07;;
15130;SDS011;7666;50.920;4.628;2023-02-13T04:09:51;62.73;;;26.83;;
15130;SDS011;7666;50.920;4.628;2023-02-13T04:12:40;30.50;;;25.53;;
15130;SDS011;7666;50.920;4.628;2023-02-13T04:15:50;30.07;;;25.27;;
15130;SDS011;7666;50.920;4.628;2023-02-13T04:18:46;71.07;;;26.23;;
15130;SDS011;7666;50.920;4.628;2023-02-13T04:21:37;30.77;;;25.43;;
15130;SDS011;7666;50.920;4.628;2023-02-13T04:24:27;29.27;;;23.77;;
15130;SDS011;7666;50.920;4.628;2023-02-13T04:27:14;70.67;;;25.03;;
15130;SDS011;7666;50.920;4.628;2023-02-13T04:30:01;60.37;;;23.77;;
15130;SDS011;7666;50.920;4.628;2023-02-13T04:32:47;25.17;;;21.70;;
15130;SDS011;7666;50.920;4.628;2023-02-13T04:35:33;38.37;;;22.73;;
15130;SDS011;7666;50.920;4.628;2023-02-13T04:38:19;26.30;;;22.07;;
15130;SDS011;7666;50.920;4.628;2023-02-13T04:41:05;46.50;;;22.00;;
15130;SDS011;7666;50.920;4.628;2023-02-13T04:43:51;25.60;;;22.33;;
15130;SDS011;7666;50.920;4.628;2023-02-13T04:46:37;58.80;;;24.83;;
15130;SDS011;7666;50.920;4.628;2023-02-13T04:49:23;32.80;;;22.70;;
15130;SDS011;7666;50.920;4.628;2023-02-13T04:52:09;30.20;;;22.40;;
15130;SDS011;7666;50.920;4.628;2023-02-13T04:54:55;104.43;;;25.27;;
15130;SDS011;7666;50.920;4.628;2023-02-13T04:57:41;36.13;;;23.73;;
15130;SDS011;7666;50.920;4.628;2023-02-13T05:00:27;32.03;;;23.53;;
15130;SDS011;7666;50.920;4.628;2023-02-13T05:03:14;27.47;;;23.10;;
15130;SDS011;7666;50.920;4.628;2023-02-13T05:06:00;33.47;;;23.33;;
15130;SDS011;7666;50.920;4.628;2023-02-13T05:08:46;27.27;;;23.17;;
15130;SDS011;7666;50.920;4.628;2023-02-13T05:11:32;29.80;;;24.33;;
15130;SDS011;7666;50.920;4.628;2023-02-13T05:14:18;50.83;;;25.27;;
15130;SDS011;7666;50.920;4.628;2023-02-13T05:17:04;37.30;;;24.60;;
15130;SDS011;7666;50.920;4.628;2023-02-13T05:19:50;28.73;;;23.23;;
15130;SDS011;7666;50.920;4.628;2023-02-13T05:22:36;26.93;;;22.57;;
15130;SDS011;7666;50.920;4.628;2023-02-13T05:25:40;25.30;;;21.97;;
15130;SDS011;7666;50.920;4.628;2023-02-13T05:28:26;24.37;;;21.57;;
15130;SDS011;7666;50.920;4.628;2023-02-13T05:31:31;27.53;;;22.27;;
15130;SDS011;7666;50.920;4.628;2023-02-13T05:34:17;34.10;;;25.63;;
15130;SDS011;7666;50.920;4.628;2023-02-13T05:37:07;49.87;;;24.30;;
15130;SDS011;7666;50.920;4.628;2023-02-13T05:39:53;30.10;;;24.17;;
15130;SDS011;7666;50.920;4.628;2023-02-13T05:42:39;29.73;;;24.20;;
15130;SDS011;7666;50.920;4.628;2023-02-13T05:45:26;29.63;;;23.97;;
15130;SDS011;7666;50.920;4.628;2023-02-13T05:48:12;32.80;;;24.57;;
15130;SDS011;7666;50.920;4.628;2023-02-13T05:50:58;35.47;;;23.50;;
15130;SDS011;7666;50.920;4.628;2023-02-13T05:53:44;30.90;;;23.20;;
15130;SDS011;7666;50.920;4.628;2023-02-13T05:56:30;28.10;;;23.73;;
15130;SDS011;7666;50.920;4.628;2023-02-13T05:59:16;27.50;;;23.13;;
15130;SDS011;7666;50.920;4.628;2023-02-13T06:02:02;28.83;;;23.40;;
15130;SDS011;7666;50.920;4.628;2023-02-13T06:04:48;23.70;;;20.67;;
15130;SDS011;7666;50.920;4.628;2023-02-13T06:07:34;22.93;;;20.17;;
15130;SDS011;7666;50.920;4.628;2023-02-13T06:10:20;23.33;;;19.97;;
15130;SDS011;7666;50.920;4.628;2023-02-13T06:13:06;21.90;;;19.43;;
15130;SDS011;7666;50.920;4.628;2023-02-13T06:15:52;21.07;;;18.27;;
15130;SDS011;7666;50.920;4.628;2023-02-13T06:18:38;22.70;;;19.50;;
15130;SDS011;7666;50.920;4.628;2023-02-13T06:21:24;22.03;;;19.47;;
15130;SDS011;7666;50.920;4.628;2023-02-13T06:24:10;22.83;;;19.37;;
15130;SDS011;7666;50.920;4.628;2023-02-13T06:26:56;23.83;;;19.27;;
15130;SDS011;7666;50.920;4.628;2023-02-13T06:29:42;25.37;;;20.97;;
15130;SDS011;7666;50.920;4.628;2023-02-13T06:32:28;25.27;;;20.93;;
15130;SDS011;7666;50.920;4.628;2023-02-13T06:35:14;24.57;;;21.03;;
15130;SDS011;7666;50.920;4.628;2023-02-13T06:38:00;22.50;;;19.87;;
15130;SDS011;7666;50.920;4.628;2023-02-13T06:40:46;23.73;;;20.87;;
15130;SDS011;7666;50.920;4.628;2023-02-13T06:43:33;23.47;;;20.27;;
15130;SDS011;7666;50.920;4.628;2023-02-13T06:46:19;22.37;;;19.03;;
15130;SDS011;7666;50.920;4.628;2023-02-13T06:49:05;24.07;;;19.90;;
15130;SDS011;7666;50.920;4.628;2023-02-13T06:51:51;23.07;;;19.93;;
15130;SDS011;7666;50.920;4.628;2023-02-13T06:54:37;21.10;;;18.80;;
15130;SDS011;7666;50.920;4.628;2023-02-13T06:57:23;22.00;;;19.17;;
15130;SDS011;7666;50.920;4.628;2023-02-13T07:00:10;21.17;;;18.87;;
15130;SDS011;7666;50.920;4.628;2023-02-13T07:03:01;23.23;;;19.37;;
15130;SDS011;7666;50.920;4.628;2023-02-13T07:05:49;22.23;;;19.47;;
15130;SDS011;7666;50.920;4.628;2023-02-13T07:08:36;19.87;;;17.70;;
15130;SDS011;7666;50.920;4.628;2023-02-13T07:11:23;19.40;;;17.17;;
15130;SDS011;7666;50.920;4.628;2023-02-13T07:14:09;22.60;;;18.50;;
15130;SDS011;7666;50.920;4.628;2023-02-13T07:16:55;21.70;;;18.53;;
15130;SDS011;7666;50.920;4.628;2023-02-13T07:19:41;23.37;;;18.63;;
15130;SDS011;7666;50.920;4.628;2023-02-13T07:22:29;20.70;;;18.50;;
15130;SDS011;7666;50.920;4.628;2023-02-13T07:25:16;20.50;;;17.23;;
15130;SDS011;7666;50.920;4.628;2023-02-13T07:28:03;19.80;;;17.57;;
15130;SDS011;7666;50.920;4.628;2023-02-13T07:30:49;17.30;;;15.43;;
15130;SDS011;7666;50.920;4.628;2023-02-13T07:33:36;17.23;;;14.97;;
15130;SDS011;7666;50.920;4.628;2023-02-13T07:36:22;15.63;;;14.03;;
15130;SDS011;7666;50.920;4.628;2023-02-13T07:39:08;16.37;;;14.60;;
15130;SDS011;7666;50.920;4.628;2023-02-13T07:41:54;15.73;;;13.13;;
15130;SDS011;7666;50.920;4.628;2023-02-13T07:44:40;14.53;;;13.00;;
15130;SDS011;7666;50.920;4.628;2023-02-13T07:47:26;15.77;;;12.97;;
15130;SDS011;7666;50.920;4.628;2023-02-13T07:50:12;14.17;;;12.67;;
15130;SDS011;7666;50.920;4.628;2023-02-13T07:52:59;14.30;;;12.80;;
15130;SDS011;7666;50.920;4.628;2023-02-13T07:55:46;15.27;;;13.43;;
15130;SDS011;7666;50.920;4.628;2023-02-13T07:58:32;14.47;;;12.97;;
15130;SDS011;7666;50.920;4.628;2023-02-13T08:01:18;13.90;;;12.43;;
15130;SDS011;7666;50.920;4.628;2023-02-13T08:04:04;15.47;;;13.83;;
15130;SDS011;7666;50.920;4.628;2023-02-13T08:06:50;14.07;;;12.57;;
15130;SDS011;7666;50.920;4.628;2023-02-13T08:09:36;13.73;;;12.33;;
15130;SDS011;7666;50.920;4.628;2023-02-13T08:12:41;14.30;;;12.87;;
15130;SDS011;7666;50.920;4.628;2023-02-13T08:15:27;14.17;;;12.77;;
15130;SDS011;7666;50.920;4.628;2023-02-13T08:18:13;13.93;;;12.43;;
15130;SDS011;7666;50.920;4.628;2023-02-13T08:21:00;12.57;;;11.27;;
15130;SDS011;7666;50.920;4.628;2023-02-13T08:23:47;13.07;;;11.77;;
15130;SDS011;7666;50.920;4.628;2023-02-13T08:26:36;13.37;;;11.97;;
15130;SDS011;7666;50.920;4.628;2023-02-13T08:29:22;13.87;;;12.47;;
15130;SDS011;7666;50.920;4.628;2023-02-13T08:32:08;14.87;;;13.07;;
15130;SDS011;7666;50.920;4.628;2023-02-13T08:34:54;14.47;;;12.97;;
15130;SDS011;7666;50.920;4.628;2023-02-13T08:37:40;14.87;;;13.27;;
15130;SDS011;7666;50.920;4.628;2023-02-13T08:40:26;18.27;;;15.50;;
15130;SDS011;7666;50.920;4.628;2023-02-13T08:43:12;17.57;;;14.90;;
15130;SDS011;7666;50.920;4.628;2023-02-13T08:45:58;16.80;;;14.83;;
15130;SDS011;7666;50.920;4.628;2023-02-13T08:48:45;17.43;;;15.13;;
15130;SDS011;7666;50.920;4.628;2023-02-13T08:51:31;16.83;;;14.77;;
15130;SDS011;7666;50.920;4.628;2023-02-13T08:54:17;18.37;;;15.10;;
15130;SDS011;7666;50.920;4.628;2023-02-13T08:57:03;17.63;;;15.43;;
15130;SDS011;7666;50.920;4.628;2023-02-13T08:59:49;17.33;;;15.10;;
15130;SDS011;7666;50.920;4.628;2023-02-13T09:02:35;19.27;;;15.63;;
15130;SDS011;7666;50.920;4.628;2023-02-13T09:05:21;18.93;;;14.97;;
15130;SDS011;7666;50.920;4.628;2023-02-13T09:08:07;19.20;;;16.27;;
15130;SDS011;7666;50.920;4.628;2023-02-13T09:10:59;18.13;;;15.57;;
15130;SDS011;7666;50.920;4.628;2023-02-13T09:13:46;18.03;;;14.70;;
15130;SDS011;7666;50.920;4.628;2023-02-13T09:16:33;20.60;;;14.80;;
15130;SDS011;7666;50.920;4.628;2023-02-13T09:19:19;17.70;;;14.53;;
15130;SDS011;7666;50.920;4.628;2023-02-13T09:22:05;18.47;;;15.23;;
15130;SDS011;7666;50.920;4.628;2023-02-13T09:24:51;17.33;;;15.37;;
15130;SDS011;7666;50.920;4.628;2023-02-13T09:27:37;18.77;;;15.27;;
15130;SDS011;7666;50.920;4.628;2023-02-13T09:30:26;17.93;;;15.20;;
15130;SDS011;7666;50.920;4.628;2023-02-13T09:33:12;20.17;;;16.77;;
15130;SDS011;7666;50.920;4.628;2023-02-13T09:35:58;21.63;;;16.90;;
15130;SDS011;7666;50.920;4.628;2023-02-13T09:38:50;18.63;;;15.80;;
15130;SDS011;7666;50.920;4.628;2023-02-13T09:41:38;20.50;;;16.27;;
15130;SDS011;7666;50.920;4.628;2023-02-13T09:50:40;19.97;;;16.20;;
15130;SDS011;7666;50.920;4.628;2023-02-13T09:53:27;19.03;;;15.87;;
15130;SDS011;7666;50.920;4.628;2023-02-13T10:15:34;19.63;;;16.97;;
15130;SDS011;7666;50.920;4.628;2023-02-13T10:18:28;20.60;;;16.77;;
15130;SDS011;7666;50.920;4.628;2023-02-13T10:21:29;20.60;;;16.13;;
15130;SDS011;7666;50.920;4.628;2023-02-13T10:24:29;19.17;;;16.37;;
15130;SDS011;7666;50.920;4.628;2023-02-13T10:27:23;20.73;;;16.63;;
15130;SDS011;7666;50.920;4.628;2023-02-13T10:30:19;17.43;;;14.93;;
15130;SDS011;7666;50.920;4.628;2023-02-13T10:33:14;19.20;;;14.87;;
15130;SDS011;7666;50.920;4.628;2023-02-13T10:41:51;18.07;;;14.83;;
15130;SDS011;7666;50.920;4.628;2023-02-13T10:45:00;17.97;;;13.93;;
15130;SDS011;7666;50.920;4.628;2023-02-13T10:57:15;16.63;;;11.60;;
15130;SDS011;7666;50.920;4.628;2023-02-13T11:02:54;13.40;;;10.97;;
15130;SDS011;7666;50.920;4.628;2023-02-13T11:05:42;14.17;;;10.80;;
15130;SDS011;7666;50.920;4.628;2023-02-13T11:08:32;14.60;;;11.03;;
15130;SDS011;7666;50.920;4.628;2023-02-13T11:11:29;12.27;;;10.20;;
15130;SDS011;7666;50.920;4.628;2023-02-13T11:17:15;13.40;;;10.67;;
15130;SDS011;7666;50.920;4.628;2023-02-13T11:20:06;14.57;;;11.23;;
15130;SDS011;7666;50.920;4.628;2023-02-13T11:26:28;12.50;;;10.40;;
15130;SDS011;7666;50.920;4.628;2023-02-13T11:29:23;11.90;;;10.27;;
15130;SDS011;7666;50.920;4.628;2023-02-13T11:35:25;13.00;;;10.67;;
15130;SDS011;7666;50.920;4.628;2023-02-13T11:41:06;12.50;;;10.40;;
15130;SDS011;7666;50.920;4.628;2023-02-13T11:43:58;13.27;;;11.33;;
15130;SDS011;7666;50.920;4.628;2023-02-13T11:46:47;15.60;;;11.30;;
15130;SDS011;7666;50.920;4.628;2023-02-13T11:49:36;12.33;;;10.23;;
15130;SDS011;7666;50.920;4.628;2023-02-13T11:52:25;13.03;;;11.43;;
15130;SDS011;7666;50.920;4.628;2023-02-13T11:55:24;14.07;;;10.50;;
15130;SDS011;7666;50.920;4.628;2023-02-13T12:04:15;11.33;;;10.10;;
15130;SDS011;7666;50.920;4.628;2023-02-13T12:07:03;11.90;;;10.33;;
15130;SDS011;7666;50.920;4.628;2023-02-13T12:16:01;15.63;;;11.33;;
15130;SDS011;7666;50.920;4.628;2023-02-13T12:19:11;11.40;;;9.97;;
15130;SDS011;7666;50.920;4.628;2023-02-13T12:25:38;12.33;;;11.03;;
15130;SDS011;7666;50.920;4.628;2023-02-13T12:28:45;11.57;;;9.70;;
15130;SDS011;7666;50.920;4.628;2023-02-13T12:31:51;12.87;;;10.67;;
15130;SDS011;7666;50.920;4.628;2023-02-13T12:35:09;13.47;;;10.97;;
15130;SDS011;7666;50.920;4.628;2023-02-13T12:41:33;12.20;;;10.57;;
15130;SDS011;7666;50.920;4.628;2023-02-13T12:48:11;12.03;;;10.30;;
15130;SDS011;7666;50.920;4.628;2023-02-13T12:51:19;12.33;;;9.87;;
15130;SDS011;7666;50.920;4.628;2023-02-13T12:54:42;10.60;;;9.20;;
15130;SDS011;7666;50.920;4.628;2023-02-13T13:04:22;11.97;;;9.37;;
15130;SDS011;7666;50.920;4.628;2023-02-13T13:16:28;12.90;;;9.47;;
15130;SDS011;7666;50.920;4.628;2023-02-13T13:22:39;11.73;;;9.77;;
15130;SDS011;7666;50.920;4.628;2023-02-13T13:28:40;11.20;;;9.43;;
15130;SDS011;7666;50.920;4.628;2023-02-13T13:31:31;11.03;;;9.43;;
15130;SDS011;7666;50.920;4.628;2023-02-13T13:34:24;13.60;;;10.53;;
15130;SDS011;7666;50.920;4.628;2023-02-13T13:37:15;11.27;;;10.07;;
15130;SDS011;7666;50.920;4.628;2023-02-13T13:40:25;15.00;;;9.23;;
15130;SDS011;7666;50.920;4.628;2023-02-13T13:55:58;10.40;;;9.00;;
15130;SDS011;7666;50.920;4.628;2023-02-13T13:58:46;10.57;;;9.47;;
15130;SDS011;7666;50.920;4.628;2023-02-13T14:01:34;11.10;;;9.10;;
15130;SDS011;7666;50.920;4.628;2023-02-13T14:07:24;11.43;;;9.53;;
15130;SDS011;7666;50.920;4.628;2023-02-13T14:13:05;10.50;;;8.93;;
15130;SDS011;7666;50.920;4.628;2023-02-13T14:15:52;10.10;;;9.07;;
15130;SDS011;7666;50.920;4.628;2023-02-13T14:18:43;10.40;;;8.93;;
15130;SDS011;7666;50.920;4.628;2023-02-13T14:21:31;10.17;;;9.13;;
15130;SDS011;7666;50.920;4.628;2023-02-13T14:24:17;12.87;;;8.43;;
15130;SDS011;7666;50.920;4.628;2023-02-13T14:27:04;10.03;;;8.70;;
15130;SDS011;7666;50.920;4.628;2023-02-13T14:30:25;11.17;;;9.03;;
15130;SDS011;7666;50.920;4.628;2023-02-13T14:33:26;11.37;;;8.73;;
15130;SDS011;7666;50.920;4.628;2023-02-13T14:36:21;8.80;;;7.90;;
15130;SDS011;7666;50.920;4.628;2023-02-13T14:39:21;10.37;;;8.97;;
15130;SDS011;7666;50.920;4.628;2023-02-13T14:42:22;10.13;;;8.87;;
15130;SDS011;7666;50.920;4.628;2023-02-13T14:45:12;9.90;;;8.67;;
15130;SDS011;7666;50.920;4.628;2023-02-13T14:48:03;9.93;;;8.40;;
15130;SDS011;7666;50.920;4.628;2023-02-13T14:50:53;9.93;;;8.77;;
15130;SDS011;7666;50.920;4.628;2023-02-13T14:53:51;10.20;;;8.80;;
15130;SDS011;7666;50.920;4.628;2023-02-13T15:00:21;11.00;;;8.70;;
15130;SDS011;7666;50.920;4.628;2023-02-13T15:06:18;9.53;;;8.17;;
15130;SDS011;7666;50.920;4.628;2023-02-13T15:12:27;12.70;;;8.00;;
15130;SDS011;7666;50.920;4.628;2023-02-13T15:15:23;7.80;;;6.93;;
15130;SDS011;7666;50.920;4.628;2023-02-13T15:18:16;7.83;;;6.80;;
15130;SDS011;7666;50.920;4.628;2023-02-13T15:21:14;6.97;;;6.20;;
15130;SDS011;7666;50.920;4.628;2023-02-13T15:24:04;8.77;;;6.93;;
15130;SDS011;7666;50.920;4.628;2023-02-13T15:26:58;7.73;;;6.70;;
15130;SDS011;7666;50.920;4.628;2023-02-13T15:29:52;8.63;;;6.87;;
15130;SDS011;7666;50.920;4.628;2023-02-13T15:32:56;8.20;;;7.13;;
15130;SDS011;7666;50.920;4.628;2023-02-13T15:35:45;8.23;;;7.33;;
15130;SDS011;7666;50.920;4.628;2023-02-13T15:38:35;8.87;;;6.97;;
15130;SDS011;7666;50.920;4.628;2023-02-13T15:41:22;6.57;;;5.87;;
15130;SDS011;7666;50.920;4.628;2023-02-13T15:44:15;7.20;;;6.50;;
15130;SDS011;7666;50.920;4.628;2023-02-13T15:47:05;6.30;;;5.40;;
15130;SDS011;7666;50.920;4.628;2023-02-13T15:49:53;7.23;;;5.67;;
15130;SDS011;7666;50.920;4.628;2023-02-13T15:52:39;7.33;;;5.70;;
15130;SDS011;7666;50.920;4.628;2023-02-13T15:55:27;7.00;;;5.90;;
15130;SDS011;7666;50.920;4.628;2023-02-13T15:58:15;6.63;;;5.07;;
15130;SDS011;7666;50.920;4.628;2023-02-13T16:01:07;8.30;;;5.73;;
15130;SDS011;7666;50.920;4.628;2023-02-13T16:04:05;7.60;;;5.97;;
15130;SDS011;7666;50.920;4.628;2023-02-13T16:06:54;8.53;;;6.30;;
15130;SDS011;7666;50.920;4.628;2023-02-13T16:09:41;7.07;;;5.93;;
15130;SDS011;7666;50.920;4.628;2023-02-13T16:12:27;8.43;;;6.80;;
15130;SDS011;7666;50.920;4.628;2023-02-13T16:15:17;7.90;;;6.30;;
15130;SDS011;7666;50.920;4.628;2023-02-13T16:18:05;6.97;;;6.13;;
15130;SDS011;7666;50.920;4.628;2023-02-13T16:21:04;18.10;;;6.37;;
15130;SDS011;7666;50.920;4.628;2023-02-13T16:23:53;7.90;;;6.50;;
15130;SDS011;7666;50.920;4.628;2023-02-13T16:26:43;8.87;;;6.00;;
15130;SDS011;7666;50.920;4.628;2023-02-13T16:29:30;10.67;;;6.97;;
15130;SDS011;7666;50.920;4.628;2023-02-13T16:32:18;8.10;;;6.90;;
15130;SDS011;7666;50.920;4.628;2023-02-13T16:35:14;8.33;;;6.90;;
15130;SDS011;7666;50.920;4.628;2023-02-13T16:44:20;7.83;;;6.27;;
15130;SDS011;7666;50.920;4.628;2023-02-13T16:47:11;6.60;;;5.50;;
15130;SDS011;7666;50.920;4.628;2023-02-13T16:50:12;6.53;;;5.63;;
15130;SDS011;7666;50.920;4.628;2023-02-13T16:53:01;7.77;;;5.80;;
15130;SDS011;7666;50.920;4.628;2023-02-13T16:55:55;6.73;;;5.57;;
15130;SDS011;7666;50.920;4.628;2023-02-13T17:07:53;22.83;;;5.20;;
15130;SDS011;7666;50.920;4.628;2023-02-13T17:10:59;9.60;;;4.73;;
15130;SDS011;7666;50.920;4.628;2023-02-13T17:13:50;6.77;;;5.07;;
15130;SDS011;7666;50.920;4.628;2023-02-13T17:16:36;7.93;;;5.47;;
15130;SDS011;7666;50.920;4.628;2023-02-13T17:19:22;6.30;;;4.80;;
15130;SDS011;7666;50.920;4.628;2023-02-13T17:22:12;6.17;;;4.90;;
15130;SDS011;7666;50.920;4.628;2023-02-13T17:25:08;7.47;;;4.50;;
15130;SDS011;7666;50.920;4.628;2023-02-13T17:30:58;6.07;;;4.90;;
15130;SDS011;7666;50.920;4.628;2023-02-13T17:33:44;5.50;;;4.83;;
15130;SDS011;7666;50.920;4.628;2023-02-13T17:36:30;5.23;;;4.63;;
15130;SDS011;7666;50.920;4.628;2023-02-13T17:39:16;5.90;;;5.30;;
15130;SDS011;7666;50.920;4.628;2023-02-13T17:42:02;9.30;;;4.37;;
15130;SDS011;7666;50.920;4.628;2023-02-13T17:44:48;6.33;;;5.03;;
15130;SDS011;7666;50.920;4.628;2023-02-13T17:47:35;8.07;;;5.37;;
15130;SDS011;7666;50.920;4.628;2023-02-13T17:50:21;7.93;;;5.67;;
15130;SDS011;7666;50.920;4.628;2023-02-13T17:53:13;7.60;;;5.57;;
15130;SDS011;7666;50.920;4.628;2023-02-13T17:56:08;7.40;;;5.90;;
15130;SDS011;7666;50.920;4.628;2023-02-13T17:58:54;6.80;;;5.60;;
15130;SDS011;7666;50.920;4.628;2023-02-13T18:01:40;5.93;;;4.83;;
15130;SDS011;7666;50.920;4.628;2023-02-13T18:04:26;6.60;;;4.73;;
15130;SDS011;7666;50.920;4.628;2023-02-13T18:07:13;6.77;;;4.83;;
15130;SDS011;7666;50.920;4.628;2023-02-13T18:10:06;7.07;;;5.93;;
15130;SDS011;7666;50.920;4.628;2023-02-13T18:12:53;9.37;;;6.33;;
15130;SDS011;7666;50.920;4.628;2023-02-13T18:15:42;7.70;;;5.40;;
15130;SDS011;7666;50.920;4.628;2023-02-13T18:18:28;5.73;;;5.07;;
15130;SDS011;7666;50.920;4.628;2023-02-13T18:21:14;7.03;;;5.90;;
15130;SDS011;7666;50.920;4.628;2023-02-13T18:24:00;7.03;;;4.70;;
15130;SDS011;7666;50.920;4.628;2023-02-13T18:26:46;5.73;;;4.80;;
15130;SDS011;7666;50.920;4.628;2023-02-13T18:29:33;7.43;;;5.20;;
15130;SDS011;7666;50.920;4.628;2023-02-13T18:32:22;6.70;;;4.80;;
15130;SDS011;7666;50.920;4.628;2023-02-13T18:35:08;7.03;;;5.63;;
15130;SDS011;7666;50.920;4.628;2023-02-13T18:37:55;7.80;;;6.30;;
15130;SDS011;7666;50.920;4.628;2023-02-13T18:40:41;8.63;;;6.30;;
15130;SDS011;7666;50.920;4.628;2023-02-13T18:43:27;10.27;;;6.00;;
15130;SDS011;7666;50.920;4.628;2023-02-13T18:46:13;9.83;;;6.63;;
15130;SDS011;7666;50.920;4.628;2023-02-13T18:48:59;7.47;;;5.83;;
15130;SDS011;7666;50.920;4.628;2023-02-13T18:51:45;11.47;;;8.17;;
15130;SDS011;7666;50.920;4.628;2023-02-13T18:54:31;12.40;;;7.60;;
15130;SDS011;7666;50.920;4.628;2023-02-13T18:57:17;7.27;;;4.80;;
15130;SDS011;7666;50.920;4.628;2023-02-13T19:00:03;6.70;;;4.43;;
15130;SDS011;7666;50.920;4.628;2023-02-13T19:02:50;7.23;;;4.50;;
15130;SDS011;7666;50.920;4.628;2023-02-13T19:05:38;9.27;;;6.17;;
15130;SDS011;7666;50.920;4.628;2023-02-13T19:08:25;13.47;;;7.73;;
15130;SDS011;7666;50.920;4.628;2023-02-13T19:11:12;10.20;;;7.10;;
15130;SDS011;7666;50.920;4.628;2023-02-13T19:14:00;8.43;;;6.23;;
15130;SDS011;7666;50.920;4.628;2023-02-13T19:16:46;10.60;;;7.50;;
15130;SDS011;7666;50.920;4.628;2023-02-13T19:19:32;13.30;;;8.80;;
15130;SDS011;7666;50.920;4.628;2023-02-13T19:22:18;11.17;;;7.80;;
15130;SDS011;7666;50.920;4.628;2023-02-13T19:25:04;10.60;;;7.40;;
15130;SDS011;7666;50.920;4.628;2023-02-13T19:27:51;10.67;;;7.40;;
15130;SDS011;7666;50.920;4.628;2023-02-13T19:30:37;9.40;;;8.03;;
15130;SDS011;7666;50.920;4.628;2023-02-13T19:33:23;9.97;;;7.83;;
15130;SDS011;7666;50.920;4.628;2023-02-13T19:36:10;10.73;;;7.87;;
15130;SDS011;7666;50.920;4.628;2023-02-13T19:38:59;10.37;;;7.53;;
15130;SDS011;7666;50.920;4.628;2023-02-13T19:41:48;12.10;;;9.80;;
15130;SDS011;7666;50.920;4.628;2023-02-13T19:44:34;14.03;;;8.73;;
15130;SDS011;7666;50.920;4.628;2023-02-13T19:47:20;11.50;;;7.83;;
15130;SDS011;7666;50.920;4.628;2023-02-13T19:50:07;12.33;;;9.30;;
15130;SDS011;7666;50.920;4.628;2023-02-13T19:52:53;11.93;;;9.67;;
15130;SDS011;7666;50.920;4.628;2023-02-13T19:55:39;13.80;;;10.67;;
15130;SDS011;7666;50.920;4.628;2023-02-13T19:58:25;13.20;;;11.00;;